首页
METAR-TAF:

METAR-TAF

机场 :

哈米德·卡尔扎伊国际机场

喀布尔, 阿富汗

纬度: 34-38N, 经度: 069-12E, 海拔: 1789米

当前天气观测

该预报发布于22分钟前的22:50 UTC
风速2节,风向多变
温度 14°C
湿度 63%
气压 1021 hPa
能见度10公里或以上
1500米以下无云,无积雨云

METAR: OAKB 202250Z VRB02KT CAVOK 14/07 Q1021 NOSIG RMK A3015 BLU BLU

时间: 03:42 (23:12 UTC)

预报

该预报发布于6小时和7分钟前的17:05 UTC
预报有效从20日的 18点(UTC)到 21日的 18点(UTC)
风速6节,风向北转西北
能见度10公里或以上
1500米以下无云,无积雨云
成为
从 21日的 05点(UTC)到 21日的 07点(UTC)
散云层高于10000英尺
成为
从 21日的 09点(UTC)到 21日的 10点(UTC)
风速12节,风向
几率 30%
从 21日的 10点(UTC)到 21日的 15点(UTC)
风速15节,风向,有时为25节阵风
散云层高于6000英尺, 积雨云.
附近有雷暴

TAF: OAKB 201705Z 2018/2118 34006KT CAVOK BECMG 2105/2107 SCT100 BECMG 2109/2110 35012KT PROB30 2110/2115 01015G25KT VCTS SCT060CB

超过4000个机场的气象观测和天气预报(METAR&TAF报告)。

可查询的气象台以黄色和红色小点在地图上表示。

将鼠标移到小点上方,可查看气象台名称。

然后点击查看天气观测和预报。

如需切换地图:点击带黑十字的绿色按钮放大地图;点击带横线的绿色按钮缩小地图;或者点击绿色箭头查看邻近地区的地图。


METAR-TAF: